createdAt,value
2022-12-20T00:01:34.227Z,6.90
2022-12-20T00:04:05.434Z,6.43
2022-12-20T00:06:35.226Z,6.30
2022-12-20T00:09:06.167Z,5.97
2022-12-20T00:11:33.089Z,5.88
2022-12-20T00:13:59.920Z,5.40
2022-12-20T00:16:29.048Z,5.55
2022-12-20T00:19:00.111Z,5.57
2022-12-20T00:21:28.469Z,5.22
2022-12-20T00:23:55.865Z,5.43
2022-12-20T00:26:29.311Z,5.40
2022-12-20T00:28:56.797Z,5.10
2022-12-20T00:31:25.865Z,5.57
2022-12-20T00:33:55.393Z,5.57
2022-12-20T00:36:24.527Z,5.82
2022-12-20T00:38:55.066Z,6.47
2022-12-20T00:41:28.673Z,6.47
2022-12-20T00:43:55.875Z,6.45
2022-12-20T00:46:24.537Z,6.25
2022-12-20T00:48:53.534Z,6.63
2022-12-20T00:51:27.397Z,6.95
2022-12-20T00:53:54.845Z,6.47
2022-12-20T00:56:22.113Z,6.32
2022-12-20T00:58:49.507Z,7.07
2022-12-20T01:01:27.823Z,6.57
2022-12-20T01:03:55.290Z,6.60
2022-12-20T01:06:24.887Z,6.20
2022-12-20T01:08:53.755Z,6.25
2022-12-20T01:11:27.347Z,5.70
2022-12-20T01:13:57.286Z,5.88
2022-12-20T01:19:17.321Z,5.30
2022-12-20T01:21:44.720Z,5.65
2022-12-20T01:24:16.667Z,5.10
2022-12-20T01:26:44.513Z,4.80
2022-12-20T01:29:12.141Z,5.38
2022-12-20T01:31:39.014Z,5.43
2022-12-20T01:34:06.722Z,6.03
2022-12-20T01:36:35.835Z,5.15
2022-12-20T01:39:11.483Z,5.68
2022-12-20T01:41:39.247Z,5.82
2022-12-20T01:44:18.321Z,5.75
2022-12-20T01:46:48.092Z,5.68
2022-12-20T01:49:46.007Z,5.50
2022-12-20T01:52:23.116Z,5.63
2022-12-20T01:55:13.750Z,5.57
2022-12-20T01:57:51.555Z,5.32
2022-12-20T02:00:19.177Z,5.00
2022-12-20T02:02:49.434Z,5.53
2022-12-20T02:05:19.078Z,5.03
2022-12-20T02:07:49.502Z,5.13
2022-12-20T02:10:18.617Z,5.18
2022-12-20T02:12:47.760Z,5.40
2022-12-20T02:15:39.209Z,5.18
2022-12-20T02:18:24.159Z,4.93
2022-12-20T02:21:25.784Z,5.30
2022-12-20T02:24:47.566Z,4.90
2022-12-20T02:27:42.488Z,5.05
2022-12-20T02:30:18.580Z,4.65
2022-12-20T02:32:59.085Z,5.22
2022-12-20T02:35:31.484Z,4.32
2022-12-20T02:38:04.946Z,5.38
2022-12-20T02:40:42.372Z,4.53
2022-12-20T02:43:29.424Z,4.70
2022-12-20T02:45:59.278Z,5.03
2022-12-20T02:48:29.322Z,4.65
2022-12-20T02:50:59.145Z,5.05
2022-12-20T02:53:26.580Z,5.25
2022-12-20T02:56:14.822Z,4.75
2022-12-20T02:58:58.463Z,4.40
2022-12-20T03:01:36.733Z,5.07
2022-12-20T03:04:05.036Z,5.15
2022-12-20T03:06:31.817Z,5.50
2022-12-20T03:08:58.609Z,4.90
2022-12-20T03:11:28.196Z,4.72
2022-12-20T03:13:55.323Z,4.40
2022-12-20T03:16:22.266Z,4.68
2022-12-20T03:18:49.153Z,4.22
2022-12-20T03:21:15.986Z,4.50
2022-12-20T03:23:42.797Z,5.07
2022-12-20T03:26:09.604Z,4.65
2022-12-20T03:28:41.952Z,4.57
2022-12-20T03:31:11.480Z,4.75
2022-12-20T03:33:45.105Z,5.05
2022-12-20T03:36:12.224Z,4.55
2022-12-20T03:38:39.415Z,4.70
2022-12-20T03:41:07.966Z,4.75
2022-12-20T03:43:34.833Z,3.83
2022-12-20T03:46:02.254Z,4.78
2022-12-20T03:48:34.298Z,4.43
2022-12-20T03:51:01.207Z,4.32
2022-12-20T03:53:28.007Z,4.10
2022-12-20T03:55:54.980Z,4.53
2022-12-20T03:58:22.017Z,4.45
2022-12-20T04:00:48.979Z,4.47
2022-12-20T04:03:37.994Z,4.00
2022-12-20T04:06:04.963Z,3.72
2022-12-20T04:08:32.189Z,4.03
2022-12-20T04:11:17.490Z,3.40
2022-12-20T04:14:07.227Z,3.70
2022-12-20T04:16:34.630Z,3.53
2022-12-20T04:19:02.410Z,3.28
2022-12-20T04:21:35.956Z,3.20
2022-12-20T04:24:05.748Z,3.53
2022-12-20T04:26:51.112Z,3.47
2022-12-20T04:29:18.184Z,3.03
2022-12-20T04:31:46.182Z,3.30
2022-12-20T04:34:13.072Z,3.67
2022-12-20T04:36:40.043Z,3.60
2022-12-20T04:39:12.867Z,3.50
2022-12-20T04:41:59.908Z,3.15
2022-12-20T04:44:26.780Z,2.88
2022-12-20T04:46:53.734Z,3.95
2022-12-20T04:49:20.679Z,3.22
2022-12-20T04:51:47.470Z,2.78
2022-12-20T04:54:16.764Z,3.33
2022-12-20T04:56:51.016Z,3.30
2022-12-20T04:59:21.729Z,3.13
2022-12-20T05:04:37.912Z,2.78
2022-12-20T05:07:05.370Z,2.67
2022-12-20T05:09:33.012Z,2.65
2022-12-20T05:12:00.434Z,3.00
2022-12-20T05:14:27.384Z,2.88
2022-12-20T05:16:54.558Z,3.58
2022-12-20T05:19:21.559Z,3.22
2022-12-20T05:22:06.916Z,2.90
2022-12-20T05:24:55.131Z,2.78
2022-12-20T05:27:31.820Z,3.28
2022-12-20T05:29:58.647Z,2.97
2022-12-20T05:32:27.660Z,2.70
2022-12-20T05:34:55.324Z,3.15
2022-12-20T05:37:22.395Z,2.80
2022-12-20T05:39:50.291Z,2.55
2022-12-20T05:42:20.999Z,2.97
2022-12-20T05:44:51.491Z,2.95
2022-12-20T05:47:20.516Z,3.30
2022-12-20T05:49:49.811Z,3.00
2022-12-20T05:52:16.633Z,2.80
2022-12-20T05:54:43.692Z,2.70
2022-12-20T05:57:15.904Z,2.75
2022-12-20T05:59:42.841Z,3.03
2022-12-20T06:02:27.807Z,2.33
2022-12-20T06:05:02.709Z,2.92
2022-12-20T06:07:30.370Z,3.00
2022-12-20T06:09:59.738Z,3.17
2022-12-20T06:12:38.420Z,2.45
2022-12-20T06:15:05.619Z,2.60
2022-12-20T06:17:35.318Z,2.40
2022-12-20T06:20:02.693Z,2.83
2022-12-20T06:22:30.184Z,2.88
2022-12-20T06:24:57.659Z,2.85
2022-12-20T06:27:28.024Z,3.03
2022-12-20T06:30:16.985Z,2.88
2022-12-20T06:33:04.350Z,2.53
2022-12-20T06:35:31.977Z,2.60
2022-12-20T06:37:59.687Z,2.53
2022-12-20T06:40:29.589Z,2.70
2022-12-20T06:42:59.949Z,2.80
2022-12-20T06:45:26.869Z,2.70
2022-12-20T06:47:54.532Z,2.42
2022-12-20T06:50:23.356Z,2.45
2022-12-20T06:52:50.416Z,2.45
2022-12-20T06:55:17.556Z,2.35
2022-12-20T06:57:45.901Z,2.53
2022-12-20T07:00:13.913Z,2.28
2022-12-20T07:02:41.028Z,2.25
2022-12-20T07:05:08.265Z,2.50
2022-12-20T07:07:40.228Z,2.10
2022-12-20T07:10:11.267Z,2.50
2022-12-20T07:12:42.372Z,2.30
2022-12-20T07:15:12.362Z,2.38
2022-12-20T07:17:39.231Z,2.58
2022-12-20T07:20:12.927Z,2.13
2022-12-20T07:22:40.609Z,2.20
2022-12-20T07:25:07.594Z,2.20
2022-12-20T07:27:34.365Z,2.45
2022-12-20T07:30:01.116Z,2.35
2022-12-20T07:32:27.902Z,2.65
2022-12-20T07:34:54.675Z,2.50
2022-12-20T07:37:21.554Z,2.47
2022-12-20T07:39:48.320Z,2.67
2022-12-20T07:42:15.590Z,2.40
2022-12-20T07:44:43.393Z,2.45
2022-12-20T07:47:10.588Z,2.17
2022-12-20T07:49:37.574Z,2.55
2022-12-20T07:52:05.772Z,2.72
2022-12-20T07:54:37.567Z,2.78
2022-12-20T07:57:15.239Z,2.53
2022-12-20T07:59:47.586Z,2.95
2022-12-20T08:02:23.480Z,2.25
2022-12-20T08:04:50.751Z,2.20
2022-12-20T08:07:17.689Z,2.40
2022-12-20T08:09:45.380Z,2.72
2022-12-20T08:12:16.877Z,2.35
2022-12-20T08:14:44.024Z,2.70
2022-12-20T08:17:11.762Z,2.38
2022-12-20T08:19:38.784Z,2.45
2022-12-20T08:22:06.148Z,2.90
2022-12-20T08:24:34.516Z,2.78
2022-12-20T08:27:01.388Z,2.92
2022-12-20T08:29:28.277Z,2.72
2022-12-20T08:31:55.093Z,3.03
2022-12-20T08:34:21.908Z,2.50
2022-12-20T08:36:48.771Z,2.75
2022-12-20T08:39:15.556Z,2.53
2022-12-20T08:41:42.377Z,2.42
2022-12-20T08:44:10.619Z,2.30
2022-12-20T08:46:37.761Z,2.90
2022-12-20T08:49:06.419Z,3.05
2022-12-20T08:51:33.288Z,3.65
2022-12-20T08:54:00.267Z,3.53
2022-12-20T08:56:27.014Z,4.20
2022-12-20T08:58:53.838Z,3.78
2022-12-20T09:01:21.853Z,3.80
2022-12-20T09:03:49.360Z,4.47
2022-12-20T09:06:21.420Z,3.70
2022-12-20T09:08:48.884Z,3.10
2022-12-20T09:11:25.128Z,2.85
2022-12-20T09:13:58.002Z,2.97
2022-12-20T09:16:32.239Z,3.58
2022-12-20T09:19:05.419Z,3.08
2022-12-20T09:21:34.136Z,3.40
2022-12-20T09:24:00.887Z,3.17
2022-12-20T09:26:27.775Z,3.30
2022-12-20T09:28:54.633Z,3.38
2022-12-20T09:31:25.269Z,3.40
2022-12-20T09:33:57.891Z,3.47
2022-12-20T09:36:27.509Z,5.93
2022-12-20T09:38:55.562Z,4.57
2022-12-20T09:41:30.093Z,3.25
2022-12-20T09:43:59.212Z,2.67
2022-12-20T09:46:27.236Z,2.97
2022-12-20T09:48:54.513Z,3.05
2022-12-20T09:51:47.237Z,2.38
2022-12-20T09:54:46.701Z,2.28
2022-12-20T09:57:48.987Z,2.53
2022-12-20T10:00:19.172Z,2.38
2022-12-20T10:03:06.112Z,2.60
2022-12-20T10:05:56.402Z,2.80
2022-12-20T10:08:50.549Z,2.92
2022-12-20T10:11:51.106Z,2.85
2022-12-20T10:14:27.107Z,2.22
2022-12-20T10:17:01.496Z,2.38
2022-12-20T10:19:49.825Z,2.63
2022-12-20T10:22:29.391Z,2.35
2022-12-20T10:25:11.675Z,2.30
2022-12-20T10:27:43.134Z,2.38
2022-12-20T10:30:16.157Z,2.30
2022-12-20T10:32:49.573Z,2.30
2022-12-20T10:35:40.367Z,2.20
2022-12-20T10:38:13.715Z,2.22
2022-12-20T10:41:19.556Z,2.55
2022-12-20T10:43:47.808Z,2.30
2022-12-20T10:46:19.305Z,2.40
2022-12-20T10:48:48.852Z,2.70
2022-12-20T10:51:21.912Z,2.70
2022-12-20T10:53:57.669Z,2.40
2022-12-20T10:56:29.326Z,2.38
2022-12-20T10:59:03.340Z,2.60
2022-12-20T11:01:35.438Z,2.30
2022-12-20T11:04:07.052Z,2.42
2022-12-20T11:06:45.386Z,2.38
2022-12-20T11:09:35.273Z,2.50
2022-12-20T11:12:12.575Z,2.50
2022-12-20T11:14:41.788Z,2.53
2022-12-20T11:17:14.519Z,2.65
2022-12-20T11:20:16.742Z,2.47
2022-12-20T11:22:51.365Z,2.15
2022-12-20T11:25:56.266Z,2.42
2022-12-20T11:28:44.511Z,2.67
2022-12-20T11:31:36.297Z,3.03
2022-12-20T11:34:42.673Z,2.53
2022-12-20T11:37:24.927Z,2.50
2022-12-20T11:40:10.746Z,2.53
2022-12-20T11:43:25.185Z,2.30
2022-12-20T11:46:30.834Z,2.38
2022-12-20T11:49:27.767Z,2.80
2022-12-20T11:52:10.541Z,2.67
2022-12-20T11:54:47.109Z,2.60
2022-12-20T11:57:26.591Z,2.40
2022-12-20T12:00:00.523Z,2.08
2022-12-20T12:02:51.611Z,1.90
2022-12-20T12:05:51.253Z,1.92
2022-12-20T12:08:27.882Z,2.05
2022-12-20T12:11:06.280Z,2.20
2022-12-20T12:13:37.942Z,2.67
2022-12-20T12:16:30.397Z,2.60
2022-12-20T12:19:00.668Z,2.22
2022-12-20T12:21:37.193Z,2.60
2022-12-20T12:24:33.435Z,2.80
2022-12-20T12:27:00.899Z,2.80
2022-12-20T12:29:30.865Z,3.13
2022-12-20T12:32:11.186Z,4.05
2022-12-20T12:35:28.541Z,3.42
2022-12-20T12:38:36.253Z,3.63
2022-12-20T12:41:34.985Z,3.95
2022-12-20T12:44:20.669Z,3.28
2022-12-20T12:46:58.155Z,2.92
2022-12-20T12:49:29.804Z,3.95
2022-12-20T12:52:01.327Z,4.78
2022-12-20T12:54:39.405Z,2.83
2022-12-20T12:57:16.166Z,2.50
2022-12-20T12:59:48.661Z,3.03
2022-12-20T13:02:16.208Z,2.65
2022-12-20T13:05:10.556Z,2.90
2022-12-20T13:07:37.388Z,2.63
2022-12-20T13:10:10.201Z,3.85
2022-12-20T13:12:36.911Z,7.72
2022-12-20T13:15:26.395Z,10.43
2022-12-20T13:18:17.732Z,6.75
2022-12-20T13:21:29.183Z,5.82
2022-12-20T13:24:42.427Z,11.02
2022-12-20T13:27:23.557Z,16.60
2022-12-20T13:29:57.527Z,5.00
2022-12-20T13:32:56.861Z,5.03
2022-12-20T13:35:26.895Z,3.55
2022-12-20T13:40:43.628Z,2.67
2022-12-20T13:43:19.439Z,2.50
2022-12-20T13:45:51.127Z,2.78
2022-12-20T13:48:28.644Z,2.80
2022-12-20T13:50:57.412Z,4.13
2022-12-20T13:53:27.167Z,3.85
2022-12-20T13:55:54.874Z,2.95
2022-12-20T13:58:27.243Z,3.85
2022-12-20T14:01:05.477Z,4.07
2022-12-20T14:03:33.849Z,4.63
2022-12-20T14:06:09.805Z,4.82
2022-12-20T14:08:42.296Z,2.90
2022-12-20T14:11:24.156Z,3.10
2022-12-20T14:14:00.421Z,3.22
2022-12-20T14:16:30.752Z,2.70
2022-12-20T14:18:57.445Z,3.10
2022-12-20T14:21:25.615Z,3.13
2022-12-20T14:23:56.533Z,3.13
2022-12-20T14:26:45.458Z,4.10
2022-12-20T14:29:18.396Z,5.78
2022-12-20T14:31:49.927Z,4.10
2022-12-20T14:34:29.329Z,3.08
2022-12-20T14:40:11.212Z,2.38
2022-12-20T14:42:40.192Z,2.60
2022-12-20T14:45:09.616Z,2.17
2022-12-20T14:47:37.936Z,2.70
2022-12-20T14:50:18.779Z,2.45
2022-12-20T14:52:46.048Z,2.50
2022-12-20T14:55:25.380Z,2.30
2022-12-20T14:57:55.173Z,2.35
2022-12-20T15:00:29.812Z,2.53
2022-12-20T15:02:56.724Z,2.50
2022-12-20T15:05:36.365Z,2.92
2022-12-20T15:08:33.779Z,3.72
2022-12-20T15:11:10.222Z,2.88
2022-12-20T15:13:49.795Z,3.20
2022-12-20T15:16:24.140Z,3.65
2022-12-20T15:18:55.119Z,3.63
2022-12-20T15:21:42.655Z,3.60
2022-12-20T15:24:14.222Z,3.30
2022-12-20T15:26:41.356Z,3.53
2022-12-20T15:29:15.555Z,4.10
2022-12-20T15:31:42.529Z,4.13
2022-12-20T15:34:38.220Z,4.32
2022-12-20T15:37:06.179Z,5.20
2022-12-20T15:39:34.155Z,4.10
2022-12-20T15:42:04.882Z,3.40
2022-12-20T15:44:32.346Z,3.25
2022-12-20T15:46:59.471Z,3.20
2022-12-20T15:49:30.281Z,3.30
2022-12-20T15:51:57.091Z,3.53
2022-12-20T15:54:34.604Z,4.30
2022-12-20T15:57:13.524Z,3.53
2022-12-20T16:02:30.745Z,3.90
2022-12-20T16:04:58.637Z,3.17
2022-12-20T16:07:25.544Z,3.58
2022-12-20T16:09:52.380Z,3.42
2022-12-20T16:12:28.411Z,3.08
2022-12-20T16:14:55.382Z,3.33
2022-12-20T16:17:22.254Z,3.40
2022-12-20T16:19:49.058Z,3.90
2022-12-20T16:22:19.237Z,7.60
2022-12-20T16:24:46.596Z,7.90
2022-12-20T16:27:13.940Z,5.50
2022-12-20T16:29:41.493Z,3.97
2022-12-20T16:32:18.869Z,4.55
2022-12-20T16:34:46.302Z,3.47
2022-12-20T16:37:13.856Z,3.65
2022-12-20T16:39:41.592Z,3.00
2022-12-20T16:42:17.308Z,2.70
2022-12-20T16:44:45.335Z,2.70
2022-12-20T16:47:13.658Z,2.30
2022-12-20T16:49:47.294Z,2.88
2022-12-20T16:52:19.586Z,3.50
2022-12-20T16:54:46.604Z,4.03
2022-12-20T16:57:13.533Z,4.03
2022-12-20T16:59:40.353Z,3.42
2022-12-20T17:02:24.808Z,3.95
2022-12-20T17:04:52.010Z,3.65
2022-12-20T17:07:18.871Z,4.15
2022-12-20T17:12:30.040Z,4.15
2022-12-20T17:14:57.036Z,4.20
2022-12-20T17:17:23.813Z,5.80
2022-12-20T17:19:50.617Z,6.60
2022-12-20T17:22:24.731Z,10.68
2022-12-20T17:24:51.720Z,10.15
2022-12-20T17:27:18.921Z,7.32
2022-12-20T17:29:45.720Z,6.40
2022-12-20T17:32:21.603Z,5.20
2022-12-20T17:34:48.764Z,4.80
2022-12-20T17:37:17.783Z,5.38
2022-12-20T17:39:44.583Z,4.47
2022-12-20T17:42:19.142Z,4.32
2022-12-20T17:44:48.772Z,4.47
2022-12-20T17:47:17.135Z,4.38
2022-12-20T17:49:43.887Z,3.78
2022-12-20T17:52:15.276Z,4.45
2022-12-20T17:54:42.095Z,3.55
2022-12-20T17:57:15.900Z,3.50
2022-12-20T17:59:43.104Z,3.35
2022-12-20T18:02:25.803Z,4.53
2022-12-20T18:04:53.102Z,4.35
2022-12-20T18:07:20.344Z,3.97
2022-12-20T18:09:48.293Z,3.40
2022-12-20T18:12:15.272Z,3.88
2022-12-20T18:14:42.138Z,3.70
2022-12-20T18:17:09.015Z,3.60
2022-12-20T18:19:35.925Z,4.97
2022-12-20T18:22:04.438Z,4.60
2022-12-20T18:24:31.285Z,3.80
2022-12-20T18:26:58.071Z,2.60
2022-12-20T18:29:24.863Z,2.17
2022-12-20T18:31:52.405Z,2.28
2022-12-20T18:34:19.437Z,2.28
2022-12-20T18:36:46.229Z,2.33
2022-12-20T18:39:13.546Z,2.47
2022-12-20T18:41:42.781Z,3.10
2022-12-20T18:44:11.272Z,2.90
2022-12-20T18:46:38.201Z,2.67
2022-12-20T18:49:05.131Z,2.63
2022-12-20T18:51:37.903Z,2.95
2022-12-20T18:54:07.759Z,2.70
2022-12-20T18:56:37.646Z,2.35
2022-12-20T18:59:11.485Z,2.38
2022-12-20T19:01:41.466Z,2.42
2022-12-20T19:04:09.062Z,2.28
2022-12-20T19:06:36.823Z,2.50
2022-12-20T19:09:07.900Z,2.28
2022-12-20T19:11:35.303Z,2.70
2022-12-20T19:14:02.546Z,3.20
2022-12-20T19:16:32.433Z,2.50
2022-12-20T19:19:01.492Z,2.50
2022-12-20T19:21:31.585Z,3.60
2022-12-20T19:24:04.946Z,2.90
2022-12-20T19:26:31.743Z,2.78
2022-12-20T19:28:58.853Z,2.28
2022-12-20T19:31:32.078Z,2.53
2022-12-20T19:34:03.243Z,3.38
2022-12-20T19:36:38.629Z,5.68
2022-12-20T19:39:10.495Z,6.63
2022-12-20T19:41:37.283Z,5.55
2022-12-20T19:44:05.990Z,4.07
2022-12-20T19:46:33.190Z,3.53
2022-12-20T19:49:01.271Z,2.97
2022-12-20T19:51:28.847Z,3.05
2022-12-20T19:53:57.632Z,2.53
2022-12-20T19:56:29.095Z,2.38
2022-12-20T19:58:56.481Z,2.95
2022-12-20T20:01:26.702Z,2.55
2022-12-20T20:03:57.066Z,2.67
2022-12-20T20:06:24.380Z,3.40
2022-12-20T20:08:51.696Z,4.03
2022-12-20T20:11:20.098Z,3.53
2022-12-20T20:13:47.451Z,3.55
2022-12-20T20:16:20.257Z,3.75
2022-12-20T20:18:49.691Z,3.40
2022-12-20T20:21:21.227Z,3.28
2022-12-20T20:23:50.473Z,2.78
2022-12-20T20:26:22.216Z,2.53
2022-12-20T20:28:49.250Z,2.70
2022-12-20T20:31:18.431Z,2.80
2022-12-20T20:33:46.128Z,2.22
2022-12-20T20:36:16.768Z,2.20
2022-12-20T20:38:43.819Z,2.08
2022-12-20T20:41:11.537Z,2.22
2022-12-20T20:43:39.166Z,2.30
2022-12-20T20:46:09.305Z,2.50
2022-12-20T20:48:36.983Z,5.07
2022-12-20T20:51:04.811Z,8.10
2022-12-20T20:53:34.116Z,6.90
2022-12-20T20:56:02.946Z,5.93
2022-12-20T20:58:30.186Z,5.07
2022-12-20T21:01:01.695Z,5.63
2022-12-20T21:03:30.518Z,5.20
2022-12-20T21:08:44.862Z,3.83
2022-12-20T21:11:11.872Z,3.70
2022-12-20T21:13:38.929Z,3.05
2022-12-20T21:16:08.517Z,4.32
2022-12-20T21:18:35.376Z,4.43
2022-12-20T21:21:11.432Z,4.18
2022-12-20T21:23:43.567Z,4.40
2022-12-20T21:26:10.403Z,3.58
2022-12-20T21:28:37.225Z,3.90
2022-12-20T21:31:09.014Z,3.08
2022-12-20T21:33:35.968Z,3.55
2022-12-20T21:36:11.027Z,3.22
2022-12-20T21:38:37.888Z,3.67
2022-12-20T21:41:08.853Z,3.53
2022-12-20T21:43:35.647Z,3.90
2022-12-20T21:46:03.048Z,3.70
2022-12-20T21:48:30.639Z,4.50
2022-12-20T21:51:13.627Z,3.25
2022-12-20T21:53:46.781Z,3.08
2022-12-20T21:56:13.938Z,2.67
2022-12-20T21:58:40.749Z,3.50
2022-12-20T22:01:09.004Z,2.75
2022-12-20T22:03:37.708Z,2.72
2022-12-20T22:06:05.086Z,3.58
2022-12-20T22:08:33.109Z,4.45
2022-12-20T22:11:01.338Z,3.92
2022-12-20T22:13:30.604Z,3.75
2022-12-20T22:16:05.311Z,4.72
2022-12-20T22:18:32.218Z,4.05
2022-12-20T22:20:59.020Z,4.32
2022-12-20T22:23:25.806Z,4.43
2022-12-20T22:25:52.633Z,3.53
2022-12-20T22:28:19.394Z,3.63
2022-12-20T22:30:46.262Z,2.95
2022-12-20T22:33:13.168Z,3.10
2022-12-20T22:35:40.988Z,3.75
2022-12-20T22:38:07.878Z,3.55
2022-12-20T22:40:34.674Z,3.60
2022-12-20T22:43:01.504Z,3.40
2022-12-20T22:45:28.323Z,3.28
2022-12-20T22:47:55.115Z,3.40
2022-12-20T22:50:22.129Z,3.45
2022-12-20T22:52:48.930Z,3.45
2022-12-20T22:55:15.855Z,3.55
2022-12-20T22:57:42.647Z,4.60
2022-12-20T23:00:13.137Z,6.50
2022-12-20T23:02:41.092Z,6.82
2022-12-20T23:05:09.084Z,7.20
2022-12-20T23:07:36.024Z,5.93
2022-12-20T23:10:02.910Z,6.03
2022-12-20T23:12:48.091Z,4.70
2022-12-20T23:15:33.309Z,3.80
2022-12-20T23:18:00.181Z,4.78
2022-12-20T23:20:53.138Z,5.22
2022-12-20T23:23:19.969Z,5.15
2022-12-20T23:25:46.724Z,4.28
2022-12-20T23:28:13.511Z,4.55
2022-12-20T23:30:40.332Z,4.57
2022-12-20T23:33:07.099Z,3.95
2022-12-20T23:35:33.881Z,3.75
2022-12-20T23:38:02.235Z,3.60
2022-12-20T23:40:29.035Z,3.58
2022-12-20T23:42:55.773Z,3.30
2022-12-20T23:45:22.607Z,3.15
2022-12-20T23:47:49.431Z,3.33
2022-12-20T23:50:16.242Z,4.60
2022-12-20T23:52:43.016Z,3.00
2022-12-20T23:55:09.996Z,3.15
2022-12-20T23:57:36.751Z,3.40
